Hlavní strana
METAR-TAF:

METAR-TAF

Letiště :

Mezinárodní letiště Gibraltar

Gibraltar, Gibraltar

zeměpisná šířka: 36-09N, zeměpisná délka: 005-21W, výška: 5 m

Aktuální stav počasí

Zpráva byla vytvořena před 42 minutami, v 23:50 UTC
Západní vítr 18 kt
Teplota 15°C
Vlhkost vzduchu 72%
Tlak 1016 hPa
Viditelnost 10 km a více

METAR: LXGB 122350Z AUTO 27018KT 9999 // NCD 15/10 Q1016

Čas: 01:32 (00:32 UTC)

Předpověď počasí

Zpráva byla vytvořena před 8 hodinami a 15 minutami, v 16:17 UTC
Předpověď platná od 12 v 18 UTC do 12 v 23 UTC
Západojihozápadní vítr 12 kt
Viditelnost 10 km a více
Žádná oblačnost pod 1500 m, nevyskytují se cumulonimby.

TAF: LXGB 121617Z 1218/1223 24012KT CAVOK

Stav a předpovědi počasí z více než 4 000 letišť (zprávy METAR a TAF).

Červené a žluté tečky na mapě představují dostupné meteorologické stanice.

Když kurzor umístíte na tečku, zobrazí se název stanice.

Pak kliknutím zobrazíte stav a předpověď počasí.

Chcete-li změnit mapu, kliknutím na zelené tlačítko se znaménkem +mapu přiblížíte, kliknutím na zelené tlačítko se znaménkem – mapu oddálíte a kliknutím na zelené šipky přejdete na sousední mapy.


METAR-TAF: